sensor_id;sensor_type;location;lat;lon;timestamp;P1;durP1;ratioP1;P2;durP2;ratioP2
82417;SDS011;72059;53.734;10.260;2023-10-31T00:02:15;1.57;;;1.30;;
82417;SDS011;72059;53.734;10.260;2023-10-31T00:04:42;1.70;;;1.60;;
82417;SDS011;72059;53.734;10.260;2023-10-31T00:07:10;1.50;;;1.40;;
82417;SDS011;72059;53.734;10.260;2023-10-31T00:09:37;1.52;;;1.42;;
82417;SDS011;72059;53.734;10.260;2023-10-31T00:12:05;1.70;;;1.60;;
82417;SDS011;72059;53.734;10.260;2023-10-31T00:14:32;1.82;;;1.72;;
82417;SDS011;72059;53.734;10.260;2023-10-31T00:17:00;2.70;;;2.50;;
82417;SDS011;72059;53.734;10.260;2023-10-31T00:19:27;2.30;;;2.10;;
82417;SDS011;72059;53.734;10.260;2023-10-31T00:21:54;2.30;;;2.10;;
82417;SDS011;72059;53.734;10.260;2023-10-31T00:24:22;2.10;;;1.95;;
82417;SDS011;72059;53.734;10.260;2023-10-31T00:26:49;1.90;;;1.80;;
82417;SDS011;72059;53.734;10.260;2023-10-31T00:29:17;2.72;;;2.52;;
82417;SDS011;72059;53.734;10.260;2023-10-31T00:31:45;2.40;;;2.20;;
82417;SDS011;72059;53.734;10.260;2023-10-31T00:34:12;3.45;;;2.80;;
82417;SDS011;72059;53.734;10.260;2023-10-31T00:36:39;2.58;;;2.37;;
82417;SDS011;72059;53.734;10.260;2023-10-31T00:39:07;2.40;;;2.20;;
82417;SDS011;72059;53.734;10.260;2023-10-31T00:41:34;2.50;;;2.30;;
82417;SDS011;72059;53.734;10.260;2023-10-31T00:44:02;2.45;;;2.00;;
82417;SDS011;72059;53.734;10.260;2023-10-31T00:46:29;1.92;;;1.82;;
82417;SDS011;72059;53.734;10.260;2023-10-31T00:48:57;2.20;;;2.00;;
82417;SDS011;72059;53.734;10.260;2023-10-31T00:51:24;2.37;;;2.17;;
82417;SDS011;72059;53.734;10.260;2023-10-31T00:53:51;2.90;;;2.70;;
82417;SDS011;72059;53.734;10.260;2023-10-31T00:56:19;2.25;;;2.12;;
82417;SDS011;72059;53.734;10.260;2023-10-31T00:58:46;2.20;;;2.00;;
82417;SDS011;72059;53.734;10.260;2023-10-31T01:01:14;2.00;;;1.77;;
82417;SDS011;72059;53.734;10.260;2023-10-31T01:03:41;2.33;;;2.12;;
82417;SDS011;72059;53.734;10.260;2023-10-31T01:06:09;2.08;;;1.82;;
82417;SDS011;72059;53.734;10.260;2023-10-31T01:08:36;2.25;;;2.05;;
82417;SDS011;72059;53.734;10.260;2023-10-31T01:11:03;2.08;;;1.87;;
82417;SDS011;72059;53.734;10.260;2023-10-31T01:13:31;1.92;;;1.82;;
82417;SDS011;72059;53.734;10.260;2023-10-31T01:15:59;1.70;;;1.60;;
82417;SDS011;72059;53.734;10.260;2023-10-31T01:18:26;1.55;;;1.45;;
82417;SDS011;72059;53.734;10.260;2023-10-31T01:20:54;1.80;;;1.70;;
82417;SDS011;72059;53.734;10.260;2023-10-31T01:23:21;1.12;;;1.12;;
82417;SDS011;72059;53.734;10.260;2023-10-31T01:25:49;1.25;;;1.17;;
82417;SDS011;72059;53.734;10.260;2023-10-31T01:28:16;1.47;;;1.40;;
82417;SDS011;72059;53.734;10.260;2023-10-31T01:30:43;1.52;;;1.42;;
82417;SDS011;72059;53.734;10.260;2023-10-31T01:33:11;1.35;;;1.25;;
82417;SDS011;72059;53.734;10.260;2023-10-31T01:35:38;1.80;;;1.60;;
82417;SDS011;72059;53.734;10.260;2023-10-31T01:38:06;1.67;;;1.57;;
82417;SDS011;72059;53.734;10.260;2023-10-31T01:40:33;1.40;;;1.30;;
82417;SDS011;72059;53.734;10.260;2023-10-31T01:43:00;1.62;;;1.52;;
82417;SDS011;72059;53.734;10.260;2023-10-31T01:45:28;1.17;;;1.05;;
82417;SDS011;72059;53.734;10.260;2023-10-31T01:47:55;1.20;;;1.10;;
82417;SDS011;72059;53.734;10.260;2023-10-31T01:50:23;1.52;;;1.37;;
82417;SDS011;72059;53.734;10.260;2023-10-31T01:52:51;1.20;;;1.10;;
82417;SDS011;72059;53.734;10.260;2023-10-31T01:55:19;1.50;;;1.40;;
82417;SDS011;72059;53.734;10.260;2023-10-31T01:57:47;2.20;;;2.00;;
82417;SDS011;72059;53.734;10.260;2023-10-31T02:00:16;2.33;;;1.77;;
82417;SDS011;72059;53.734;10.260;2023-10-31T02:02:44;1.55;;;1.45;;
82417;SDS011;72059;53.734;10.260;2023-10-31T02:05:11;3.08;;;1.85;;
82417;SDS011;72059;53.734;10.260;2023-10-31T02:07:39;2.08;;;1.90;;
82417;SDS011;72059;53.734;10.260;2023-10-31T02:10:06;2.10;;;1.87;;
82417;SDS011;72059;53.734;10.260;2023-10-31T02:12:34;2.00;;;1.90;;
82417;SDS011;72059;53.734;10.260;2023-10-31T02:15:03;1.55;;;1.45;;
82417;SDS011;72059;53.734;10.260;2023-10-31T02:17:31;1.50;;;1.40;;
82417;SDS011;72059;53.734;10.260;2023-10-31T02:19:59;1.82;;;1.72;;
82417;SDS011;72059;53.734;10.260;2023-10-31T02:22:27;2.85;;;2.27;;
82417;SDS011;72059;53.734;10.260;2023-10-31T02:24:54;2.35;;;2.15;;
82417;SDS011;72059;53.734;10.260;2023-10-31T02:27:21;2.00;;;1.90;;
82417;SDS011;72059;53.734;10.260;2023-10-31T02:29:49;2.12;;;1.92;;
82417;SDS011;72059;53.734;10.260;2023-10-31T02:32:16;1.87;;;1.77;;
82417;SDS011;72059;53.734;10.260;2023-10-31T02:34:44;1.92;;;1.82;;
82417;SDS011;72059;53.734;10.260;2023-10-31T02:37:12;3.52;;;2.50;;
82417;SDS011;72059;53.734;10.260;2023-10-31T02:39:39;3.17;;;2.87;;
82417;SDS011;72059;53.734;10.260;2023-10-31T02:42:07;2.65;;;2.33;;
82417;SDS011;72059;53.734;10.260;2023-10-31T02:44:34;2.90;;;2.65;;
82417;SDS011;72059;53.734;10.260;2023-10-31T02:47:01;2.05;;;1.95;;
82417;SDS011;72059;53.734;10.260;2023-10-31T02:49:29;2.52;;;2.33;;
82417;SDS011;72059;53.734;10.260;2023-10-31T02:51:56;2.30;;;2.10;;
82417;SDS011;72059;53.734;10.260;2023-10-31T02:54:24;2.40;;;2.20;;
82417;SDS011;72059;53.734;10.260;2023-10-31T02:56:51;2.90;;;2.67;;
82417;SDS011;72059;53.734;10.260;2023-10-31T02:59:19;2.35;;;2.15;;
82417;SDS011;72059;53.734;10.260;2023-10-31T03:01:46;2.80;;;2.60;;
82417;SDS011;72059;53.734;10.260;2023-10-31T03:04:13;2.12;;;1.92;;
82417;SDS011;72059;53.734;10.260;2023-10-31T03:06:41;2.65;;;2.42;;
82417;SDS011;72059;53.734;10.260;2023-10-31T03:09:09;3.58;;;2.90;;
82417;SDS011;72059;53.734;10.260;2023-10-31T03:11:37;2.50;;;2.30;;
82417;SDS011;72059;53.734;10.260;2023-10-31T03:14:04;3.33;;;2.90;;
82417;SDS011;72059;53.734;10.260;2023-10-31T03:16:32;2.62;;;2.42;;
82417;SDS011;72059;53.734;10.260;2023-10-31T03:18:59;4.37;;;2.90;;
82417;SDS011;72059;53.734;10.260;2023-10-31T03:21:26;3.50;;;3.17;;
82417;SDS011;72059;53.734;10.260;2023-10-31T03:23:54;3.30;;;3.00;;
82417;SDS011;72059;53.734;10.260;2023-10-31T03:26:21;4.17;;;3.35;;
82417;SDS011;72059;53.734;10.260;2023-10-31T03:28:49;3.60;;;3.30;;
82417;SDS011;72059;53.734;10.260;2023-10-31T03:31:18;4.22;;;3.10;;
82417;SDS011;72059;53.734;10.260;2023-10-31T03:33:46;4.35;;;3.95;;
82417;SDS011;72059;53.734;10.260;2023-10-31T03:36:13;3.72;;;3.42;;
82417;SDS011;72059;53.734;10.260;2023-10-31T03:38:41;2.95;;;2.65;;
82417;SDS011;72059;53.734;10.260;2023-10-31T03:41:08;2.80;;;2.60;;
82417;SDS011;72059;53.734;10.260;2023-10-31T03:43:35;2.70;;;2.50;;
82417;SDS011;72059;53.734;10.260;2023-10-31T03:46:04;3.67;;;3.35;;
82417;SDS011;72059;53.734;10.260;2023-10-31T03:48:31;3.00;;;2.80;;
82417;SDS011;72059;53.734;10.260;2023-10-31T03:50:58;3.70;;;3.40;;
82417;SDS011;72059;53.734;10.260;2023-10-31T03:53:26;3.05;;;2.65;;
82417;SDS011;72059;53.734;10.260;2023-10-31T03:55:53;3.10;;;2.90;;
82417;SDS011;72059;53.734;10.260;2023-10-31T03:58:21;2.95;;;2.75;;
82417;SDS011;72059;53.734;10.260;2023-10-31T04:00:49;3.70;;;3.40;;
82417;SDS011;72059;53.734;10.260;2023-10-31T04:03:16;4.85;;;3.80;;
82417;SDS011;72059;53.734;10.260;2023-10-31T04:05:44;4.97;;;4.47;;
82417;SDS011;72059;53.734;10.260;2023-10-31T04:08:11;4.03;;;3.72;;
82417;SDS011;72059;53.734;10.260;2023-10-31T04:10:39;4.53;;;4.12;;
82417;SDS011;72059;53.734;10.260;2023-10-31T04:13:06;6.65;;;6.00;;
82417;SDS011;72059;53.734;10.260;2023-10-31T04:15:34;7.05;;;5.42;;
82417;SDS011;72059;53.734;10.260;2023-10-31T04:18:01;6.65;;;5.35;;
82417;SDS011;72059;53.734;10.260;2023-10-31T04:20:29;4.75;;;4.35;;
82417;SDS011;72059;53.734;10.260;2023-10-31T04:22:56;3.95;;;3.65;;
82417;SDS011;72059;53.734;10.260;2023-10-31T04:25:24;4.62;;;4.22;;
82417;SDS011;72059;53.734;10.260;2023-10-31T04:27:53;5.22;;;4.72;;
82417;SDS011;72059;53.734;10.260;2023-10-31T04:30:21;4.60;;;4.20;;
82417;SDS011;72059;53.734;10.260;2023-10-31T04:32:48;7.30;;;6.47;;
82417;SDS011;72059;53.734;10.260;2023-10-31T04:35:16;6.62;;;6.03;;
82417;SDS011;72059;53.734;10.260;2023-10-31T04:37:43;5.65;;;5.15;;
82417;SDS011;72059;53.734;10.260;2023-10-31T04:40:11;7.92;;;7.00;;
82417;SDS011;72059;53.734;10.260;2023-10-31T04:42:39;6.37;;;5.70;;
82417;SDS011;72059;53.734;10.260;2023-10-31T04:45:06;6.67;;;5.97;;
82417;SDS011;72059;53.734;10.260;2023-10-31T04:47:34;6.35;;;5.75;;
82417;SDS011;72059;53.734;10.260;2023-10-31T04:50:02;6.70;;;6.10;;
82417;SDS011;72059;53.734;10.260;2023-10-31T04:52:29;5.12;;;4.62;;
82417;SDS011;72059;53.734;10.260;2023-10-31T04:54:57;6.22;;;5.17;;
82417;SDS011;72059;53.734;10.260;2023-10-31T04:57:24;5.35;;;4.85;;
82417;SDS011;72059;53.734;10.260;2023-10-31T04:59:51;6.78;;;6.08;;
82417;SDS011;72059;53.734;10.260;2023-10-31T05:02:23;5.75;;;5.15;;
82417;SDS011;72059;53.734;10.260;2023-10-31T05:04:50;5.70;;;5.10;;
82417;SDS011;72059;53.734;10.260;2023-10-31T05:07:18;6.70;;;6.00;;
82417;SDS011;72059;53.734;10.260;2023-10-31T05:09:45;6.20;;;5.60;;
82417;SDS011;72059;53.734;10.260;2023-10-31T05:12:13;7.72;;;6.60;;
82417;SDS011;72059;53.734;10.260;2023-10-31T05:14:40;6.62;;;6.03;;
82417;SDS011;72059;53.734;10.260;2023-10-31T05:17:07;6.70;;;5.40;;
82417;SDS011;72059;53.734;10.260;2023-10-31T05:19:35;7.28;;;5.67;;
82417;SDS011;72059;53.734;10.260;2023-10-31T05:22:02;5.08;;;4.62;;
82417;SDS011;72059;53.734;10.260;2023-10-31T05:24:30;5.90;;;5.30;;
82417;SDS011;72059;53.734;10.260;2023-10-31T05:26:57;5.28;;;4.78;;
82417;SDS011;72059;53.734;10.260;2023-10-31T05:29:25;8.15;;;7.30;;
82417;SDS011;72059;53.734;10.260;2023-10-31T05:31:52;6.25;;;5.65;;
82417;SDS011;72059;53.734;10.260;2023-10-31T05:34:20;6.95;;;4.87;;
82417;SDS011;72059;53.734;10.260;2023-10-31T05:36:47;6.08;;;5.47;;
82417;SDS011;72059;53.734;10.260;2023-10-31T05:39:15;4.75;;;4.35;;
82417;SDS011;72059;53.734;10.260;2023-10-31T05:41:42;5.53;;;5.03;;
82417;SDS011;72059;53.734;10.260;2023-10-31T05:44:10;4.95;;;4.55;;
82417;SDS011;72059;53.734;10.260;2023-10-31T05:46:38;6.55;;;5.83;;
82417;SDS011;72059;53.734;10.260;2023-10-31T05:49:08;11.38;;;8.98;;
82417;SDS011;72059;53.734;10.260;2023-10-31T05:51:36;11.33;;;9.27;;
82417;SDS011;72059;53.734;10.260;2023-10-31T05:54:03;9.70;;;8.05;;
82417;SDS011;72059;53.734;10.260;2023-10-31T05:56:32;14.25;;;9.85;;
82417;SDS011;72059;53.734;10.260;2023-10-31T05:59:00;12.33;;;9.88;;
82417;SDS011;72059;53.734;10.260;2023-10-31T06:01:27;9.10;;;7.65;;
82417;SDS011;72059;53.734;10.260;2023-10-31T06:03:55;16.73;;;11.22;;
82417;SDS011;72059;53.734;10.260;2023-10-31T06:06:22;15.10;;;10.72;;
82417;SDS011;72059;53.734;10.260;2023-10-31T06:08:49;13.15;;;10.53;;
82417;SDS011;72059;53.734;10.260;2023-10-31T06:11:17;14.30;;;11.18;;
82417;SDS011;72059;53.734;10.260;2023-10-31T06:13:44;14.75;;;10.18;;
82417;SDS011;72059;53.734;10.260;2023-10-31T06:16:13;16.95;;;11.08;;
82417;SDS011;72059;53.734;10.260;2023-10-31T06:18:41;15.85;;;10.75;;
82417;SDS011;72059;53.734;10.260;2023-10-31T06:21:08;10.93;;;8.03;;
82417;SDS011;72059;53.734;10.260;2023-10-31T06:23:36;9.58;;;7.12;;
82417;SDS011;72059;53.734;10.260;2023-10-31T06:26:04;13.00;;;8.18;;
82417;SDS011;72059;53.734;10.260;2023-10-31T06:28:32;13.38;;;8.73;;
82417;SDS011;72059;53.734;10.260;2023-10-31T06:31:01;9.55;;;7.80;;
82417;SDS011;72059;53.734;10.260;2023-10-31T06:33:28;11.78;;;8.75;;
82417;SDS011;72059;53.734;10.260;2023-10-31T06:35:55;13.65;;;8.78;;
82417;SDS011;72059;53.734;10.260;2023-10-31T06:38:23;13.50;;;8.23;;
82417;SDS011;72059;53.734;10.260;2023-10-31T06:40:50;9.68;;;7.00;;
82417;SDS011;72059;53.734;10.260;2023-10-31T06:43:18;9.23;;;6.40;;
82417;SDS011;72059;53.734;10.260;2023-10-31T06:45:45;10.18;;;7.83;;
82417;SDS011;72059;53.734;10.260;2023-10-31T06:48:13;18.23;;;10.82;;
82417;SDS011;72059;53.734;10.260;2023-10-31T06:50:40;12.80;;;9.20;;
82417;SDS011;72059;53.734;10.260;2023-10-31T06:53:07;11.48;;;7.83;;
82417;SDS011;72059;53.734;10.260;2023-10-31T06:55:35;14.25;;;8.10;;
82417;SDS011;72059;53.734;10.260;2023-10-31T06:58:02;9.33;;;6.67;;
82417;SDS011;72059;53.734;10.260;2023-10-31T07:00:30;9.53;;;7.65;;
82417;SDS011;72059;53.734;10.260;2023-10-31T07:02:57;10.65;;;7.05;;
82417;SDS011;72059;53.734;10.260;2023-10-31T07:05:26;9.28;;;6.80;;
82417;SDS011;72059;53.734;10.260;2023-10-31T07:07:54;7.28;;;5.37;;
82417;SDS011;72059;53.734;10.260;2023-10-31T07:10:21;6.12;;;4.83;;
82417;SDS011;72059;53.734;10.260;2023-10-31T07:12:49;8.73;;;6.03;;
82417;SDS011;72059;53.734;10.260;2023-10-31T07:15:16;7.72;;;5.97;;
82417;SDS011;72059;53.734;10.260;2023-10-31T07:17:43;7.70;;;6.45;;
82417;SDS011;72059;53.734;10.260;2023-10-31T07:20:11;7.35;;;5.80;;
82417;SDS011;72059;53.734;10.260;2023-10-31T07:22:38;8.45;;;6.50;;
82417;SDS011;72059;53.734;10.260;2023-10-31T07:25:06;9.88;;;7.42;;
82417;SDS011;72059;53.734;10.260;2023-10-31T07:27:34;7.05;;;5.70;;
82417;SDS011;72059;53.734;10.260;2023-10-31T07:30:04;8.28;;;6.03;;
82417;SDS011;72059;53.734;10.260;2023-10-31T07:32:32;4.80;;;4.25;;
82417;SDS011;72059;53.734;10.260;2023-10-31T07:35:00;4.62;;;4.22;;
82417;SDS011;72059;53.734;10.260;2023-10-31T07:37:28;7.50;;;6.25;;
82417;SDS011;72059;53.734;10.260;2023-10-31T07:39:55;8.13;;;6.78;;
82417;SDS011;72059;53.734;10.260;2023-10-31T07:42:22;7.30;;;6.33;;
82417;SDS011;72059;53.734;10.260;2023-10-31T07:44:50;9.40;;;7.45;;
82417;SDS011;72059;53.734;10.260;2023-10-31T07:47:17;9.93;;;8.10;;
82417;SDS011;72059;53.734;10.260;2023-10-31T07:49:45;10.78;;;7.70;;
82417;SDS011;72059;53.734;10.260;2023-10-31T07:52:13;9.43;;;6.37;;
82417;SDS011;72059;53.734;10.260;2023-10-31T07:54:41;10.25;;;8.75;;
82417;SDS011;72059;53.734;10.260;2023-10-31T07:57:09;8.88;;;6.17;;
82417;SDS011;72059;53.734;10.260;2023-10-31T07:59:36;10.68;;;8.75;;
82417;SDS011;72059;53.734;10.260;2023-10-31T08:02:04;9.70;;;6.85;;
82417;SDS011;72059;53.734;10.260;2023-10-31T08:04:32;11.40;;;8.15;;
82417;SDS011;72059;53.734;10.260;2023-10-31T08:06:59;9.60;;;6.92;;
82417;SDS011;72059;53.734;10.260;2023-10-31T08:09:27;12.30;;;7.85;;
82417;SDS011;72059;53.734;10.260;2023-10-31T08:11:54;8.90;;;6.55;;
82417;SDS011;72059;53.734;10.260;2023-10-31T08:14:22;6.90;;;5.53;;
82417;SDS011;72059;53.734;10.260;2023-10-31T08:16:49;5.95;;;4.67;;
82417;SDS011;72059;53.734;10.260;2023-10-31T08:19:17;7.08;;;5.20;;
82417;SDS011;72059;53.734;10.260;2023-10-31T08:21:44;4.50;;;3.92;;
82417;SDS011;72059;53.734;10.260;2023-10-31T08:24:11;5.28;;;4.03;;
82417;SDS011;72059;53.734;10.260;2023-10-31T08:26:39;4.72;;;3.65;;
82417;SDS011;72059;53.734;10.260;2023-10-31T08:29:06;4.20;;;3.80;;
82417;SDS011;72059;53.734;10.260;2023-10-31T08:31:34;8.13;;;6.03;;
82417;SDS011;72059;53.734;10.260;2023-10-31T08:34:01;14.13;;;9.43;;
82417;SDS011;72059;53.734;10.260;2023-10-31T08:36:29;12.50;;;9.83;;
82417;SDS011;72059;53.734;10.260;2023-10-31T08:38:56;11.22;;;8.98;;
82417;SDS011;72059;53.734;10.260;2023-10-31T08:41:24;10.70;;;9.30;;
82417;SDS011;72059;53.734;10.260;2023-10-31T08:43:51;8.65;;;7.75;;
82417;SDS011;72059;53.734;10.260;2023-10-31T08:46:19;6.65;;;5.95;;
82417;SDS011;72059;53.734;10.260;2023-10-31T08:48:47;7.65;;;6.08;;
82417;SDS011;72059;53.734;10.260;2023-10-31T08:51:15;6.37;;;4.62;;
82417;SDS011;72059;53.734;10.260;2023-10-31T08:53:42;4.12;;;3.58;;
82417;SDS011;72059;53.734;10.260;2023-10-31T08:56:10;3.45;;;3.15;;
82417;SDS011;72059;53.734;10.260;2023-10-31T08:58:37;2.85;;;2.58;;
82417;SDS011;72059;53.734;10.260;2023-10-31T09:01:06;2.40;;;2.20;;
82417;SDS011;72059;53.734;10.260;2023-10-31T09:03:33;3.25;;;1.77;;
82417;SDS011;72059;53.734;10.260;2023-10-31T09:06:01;2.00;;;1.80;;
82417;SDS011;72059;53.734;10.260;2023-10-31T09:08:29;1.87;;;1.77;;
82417;SDS011;72059;53.734;10.260;2023-10-31T09:10:56;2.42;;;2.08;;
82417;SDS011;72059;53.734;10.260;2023-10-31T09:13:24;2.25;;;2.08;;
82417;SDS011;72059;53.734;10.260;2023-10-31T09:15:51;2.20;;;2.00;;
82417;SDS011;72059;53.734;10.260;2023-10-31T09:18:19;2.75;;;2.55;;
82417;SDS011;72059;53.734;10.260;2023-10-31T09:20:46;3.20;;;3.00;;
82417;SDS011;72059;53.734;10.260;2023-10-31T09:23:13;3.52;;;3.22;;
82417;SDS011;72059;53.734;10.260;2023-10-31T09:25:47;5.50;;;5.10;;
82417;SDS011;72059;53.734;10.260;2023-10-31T09:28:11;6.67;;;5.60;;
82417;SDS011;72059;53.734;10.260;2023-10-31T09:30:39;5.40;;;4.90;;
82417;SDS011;72059;53.734;10.260;2023-10-31T09:33:06;6.85;;;5.42;;
82417;SDS011;72059;53.734;10.260;2023-10-31T09:35:33;7.45;;;6.65;;
82417;SDS011;72059;53.734;10.260;2023-10-31T09:38:01;6.62;;;6.03;;
82417;SDS011;72059;53.734;10.260;2023-10-31T09:40:28;5.25;;;4.83;;
82417;SDS011;72059;53.734;10.260;2023-10-31T09:42:56;6.65;;;6.10;;
82417;SDS011;72059;53.734;10.260;2023-10-31T09:45:23;6.53;;;6.03;;
82417;SDS011;72059;53.734;10.260;2023-10-31T09:47:50;7.50;;;6.35;;
82417;SDS011;72059;53.734;10.260;2023-10-31T09:50:19;7.40;;;6.80;;
82417;SDS011;72059;53.734;10.260;2023-10-31T09:52:46;7.37;;;6.78;;
82417;SDS011;72059;53.734;10.260;2023-10-31T09:55:14;6.95;;;6.37;;
82417;SDS011;72059;53.734;10.260;2023-10-31T09:57:42;7.37;;;6.78;;
82417;SDS011;72059;53.734;10.260;2023-10-31T10:00:10;6.10;;;5.60;;
82417;SDS011;72059;53.734;10.260;2023-10-31T10:02:38;4.87;;;4.37;;
82417;SDS011;72059;53.734;10.260;2023-10-31T10:05:05;2.37;;;2.25;;
82417;SDS011;72059;53.734;10.260;2023-10-31T10:07:34;1.40;;;1.30;;
82417;SDS011;72059;53.734;10.260;2023-10-31T10:10:03;1.20;;;1.10;;
82417;SDS011;72059;53.734;10.260;2023-10-31T10:12:31;1.05;;;0.90;;
82417;SDS011;72059;53.734;10.260;2023-10-31T10:14:59;0.50;;;0.50;;
82417;SDS011;72059;53.734;10.260;2023-10-31T10:17:26;0.50;;;0.40;;
82417;SDS011;72059;53.734;10.260;2023-10-31T10:20:06;0.30;;;0.30;;
82417;SDS011;72059;53.734;10.260;2023-10-31T10:25:05;0.40;;;0.40;;
82417;SDS011;72059;53.734;10.260;2023-10-31T10:27:33;0.28;;;0.28;;
82417;SDS011;72059;53.734;10.260;2023-10-31T10:30:02;0.20;;;0.20;;
82417;SDS011;72059;53.734;10.260;2023-10-31T10:32:30;0.30;;;0.30;;
82417;SDS011;72059;53.734;10.260;2023-10-31T10:34:57;0.30;;;0.30;;
82417;SDS011;72059;53.734;10.260;2023-10-31T10:37:31;0.30;;;0.30;;
82417;SDS011;72059;53.734;10.260;2023-10-31T10:39:56;0.50;;;0.50;;
82417;SDS011;72059;53.734;10.260;2023-10-31T10:42:32;0.40;;;0.40;;
82417;SDS011;72059;53.734;10.260;2023-10-31T10:45:04;0.30;;;0.30;;
82417;SDS011;72059;53.734;10.260;2023-10-31T10:47:32;0.65;;;0.50;;
82417;SDS011;72059;53.734;10.260;2023-10-31T10:50:01;0.57;;;0.57;;
82417;SDS011;72059;53.734;10.260;2023-10-31T10:52:30;0.30;;;0.30;;
82417;SDS011;72059;53.734;10.260;2023-10-31T10:55:20;0.33;;;0.33;;
82417;SDS011;72059;53.734;10.260;2023-10-31T10:57:59;0.30;;;0.30;;
82417;SDS011;72059;53.734;10.260;2023-10-31T11:00:30;0.33;;;0.33;;
82417;SDS011;72059;53.734;10.260;2023-10-31T11:02:58;0.40;;;0.40;;
82417;SDS011;72059;53.734;10.260;2023-10-31T11:05:27;0.20;;;0.20;;
82417;SDS011;72059;53.734;10.260;2023-10-31T11:07:55;0.65;;;0.30;;
82417;SDS011;72059;53.734;10.260;2023-10-31T11:10:24;0.70;;;0.50;;
82417;SDS011;72059;53.734;10.260;2023-10-31T11:12:53;0.40;;;0.40;;
82417;SDS011;72059;53.734;10.260;2023-10-31T11:15:22;0.45;;;0.40;;
82417;SDS011;72059;53.734;10.260;2023-10-31T11:17:52;0.25;;;0.25;;
82417;SDS011;72059;53.734;10.260;2023-10-31T11:20:21;0.55;;;0.40;;
82417;SDS011;72059;53.734;10.260;2023-10-31T11:22:54;1.50;;;1.40;;
82417;SDS011;72059;53.734;10.260;2023-10-31T11:25:23;1.75;;;1.25;;
82417;SDS011;72059;53.734;10.260;2023-10-31T11:27:50;2.02;;;1.20;;
82417;SDS011;72059;53.734;10.260;2023-10-31T11:30:22;0.57;;;0.57;;
82417;SDS011;72059;53.734;10.260;2023-10-31T11:32:58;0.60;;;0.50;;
82417;SDS011;72059;53.734;10.260;2023-10-31T11:35:29;0.70;;;0.70;;
82417;SDS011;72059;53.734;10.260;2023-10-31T11:38:02;1.75;;;0.70;;
82417;SDS011;72059;53.734;10.260;2023-10-31T11:40:36;0.50;;;0.50;;
82417;SDS011;72059;53.734;10.260;2023-10-31T11:43:05;0.40;;;0.40;;
82417;SDS011;72059;53.734;10.260;2023-10-31T11:45:34;0.62;;;0.60;;
82417;SDS011;72059;53.734;10.260;2023-10-31T11:48:03;0.50;;;0.50;;
82417;SDS011;72059;53.734;10.260;2023-10-31T11:50:31;0.90;;;0.60;;
82417;SDS011;72059;53.734;10.260;2023-10-31T11:53:00;0.50;;;0.50;;
82417;SDS011;72059;53.734;10.260;2023-10-31T11:55:31;1.02;;;0.85;;
82417;SDS011;72059;53.734;10.260;2023-10-31T11:58:22;0.60;;;0.60;;
82417;SDS011;72059;53.734;10.260;2023-10-31T12:00:45;0.88;;;0.88;;
82417;SDS011;72059;53.734;10.260;2023-10-31T12:03:18;1.07;;;0.93;;
82417;SDS011;72059;53.734;10.260;2023-10-31T12:05:59;0.60;;;0.60;;
82417;SDS011;72059;53.734;10.260;2023-10-31T12:08:31;1.00;;;1.00;;
82417;SDS011;72059;53.734;10.260;2023-10-31T12:11:09;1.30;;;0.80;;
82417;SDS011;72059;53.734;10.260;2023-10-31T12:16:06;1.27;;;1.05;;
82417;SDS011;72059;53.734;10.260;2023-10-31T12:18:36;1.30;;;1.20;;
82417;SDS011;72059;53.734;10.260;2023-10-31T12:21:07;1.32;;;0.85;;
82417;SDS011;72059;53.734;10.260;2023-10-31T12:23:36;1.62;;;1.52;;
82417;SDS011;72059;53.734;10.260;2023-10-31T12:26:03;1.10;;;1.10;;
82417;SDS011;72059;53.734;10.260;2023-10-31T12:28:31;1.12;;;0.90;;
82417;SDS011;72059;53.734;10.260;2023-10-31T12:30:58;0.75;;;0.70;;
82417;SDS011;72059;53.734;10.260;2023-10-31T12:33:26;0.90;;;0.90;;
82417;SDS011;72059;53.734;10.260;2023-10-31T12:36:00;1.32;;;1.10;;
82417;SDS011;72059;53.734;10.260;2023-10-31T12:38:28;0.90;;;0.88;;
82417;SDS011;72059;53.734;10.260;2023-10-31T12:40:56;2.10;;;0.98;;
82417;SDS011;72059;53.734;10.260;2023-10-31T12:43:24;0.95;;;0.82;;
82417;SDS011;72059;53.734;10.260;2023-10-31T12:45:53;2.58;;;2.10;;
82417;SDS011;72059;53.734;10.260;2023-10-31T12:48:23;2.72;;;1.82;;
82417;SDS011;72059;53.734;10.260;2023-10-31T12:50:55;2.15;;;1.20;;
82417;SDS011;72059;53.734;10.260;2023-10-31T12:53:23;1.30;;;1.20;;
82417;SDS011;72059;53.734;10.260;2023-10-31T12:55:51;1.30;;;1.20;;
82417;SDS011;72059;53.734;10.260;2023-10-31T12:58:21;1.27;;;1.17;;
82417;SDS011;72059;53.734;10.260;2023-10-31T13:00:49;1.00;;;1.00;;
82417;SDS011;72059;53.734;10.260;2023-10-31T13:03:17;0.98;;;0.98;;
82417;SDS011;72059;53.734;10.260;2023-10-31T13:05:45;2.45;;;1.90;;
82417;SDS011;72059;53.734;10.260;2023-10-31T13:08:15;5.40;;;1.40;;
82417;SDS011;72059;53.734;10.260;2023-10-31T13:10:43;2.17;;;1.98;;
82417;SDS011;72059;53.734;10.260;2023-10-31T13:13:10;2.10;;;2.00;;
82417;SDS011;72059;53.734;10.260;2023-10-31T13:15:38;2.37;;;2.27;;
82417;SDS011;72059;53.734;10.260;2023-10-31T13:18:05;2.62;;;2.42;;
82417;SDS011;72059;53.734;10.260;2023-10-31T13:20:34;2.87;;;2.67;;
82417;SDS011;72059;53.734;10.260;2023-10-31T13:23:01;4.95;;;3.10;;
82417;SDS011;72059;53.734;10.260;2023-10-31T13:25:29;3.27;;;3.08;;
82417;SDS011;72059;53.734;10.260;2023-10-31T13:27:57;3.45;;;3.22;;
82417;SDS011;72059;53.734;10.260;2023-10-31T13:30:24;3.50;;;3.22;;
82417;SDS011;72059;53.734;10.260;2023-10-31T13:32:52;3.83;;;3.62;;
82417;SDS011;72059;53.734;10.260;2023-10-31T13:35:19;4.65;;;4.28;;
82417;SDS011;72059;53.734;10.260;2023-10-31T13:37:47;4.62;;;4.22;;
82417;SDS011;72059;53.734;10.260;2023-10-31T13:40:14;4.50;;;4.20;;
82417;SDS011;72059;53.734;10.260;2023-10-31T13:42:42;5.80;;;5.35;;
82417;SDS011;72059;53.734;10.260;2023-10-31T13:45:10;6.33;;;5.80;;
82417;SDS011;72059;53.734;10.260;2023-10-31T13:47:37;6.35;;;5.85;;
82417;SDS011;72059;53.734;10.260;2023-10-31T13:50:05;6.50;;;5.90;;
82417;SDS011;72059;53.734;10.260;2023-10-31T13:52:34;6.80;;;6.22;;
82417;SDS011;72059;53.734;10.260;2023-10-31T13:55:01;7.25;;;6.47;;
82417;SDS011;72059;53.734;10.260;2023-10-31T13:57:29;7.15;;;6.55;;
82417;SDS011;72059;53.734;10.260;2023-10-31T13:59:56;8.38;;;7.05;;
82417;SDS011;72059;53.734;10.260;2023-10-31T14:02:26;8.23;;;7.42;;
82417;SDS011;72059;53.734;10.260;2023-10-31T14:04:54;8.23;;;7.50;;
82417;SDS011;72059;53.734;10.260;2023-10-31T14:07:21;7.72;;;7.03;;
82417;SDS011;72059;53.734;10.260;2023-10-31T14:09:49;7.53;;;6.80;;
82417;SDS011;72059;53.734;10.260;2023-10-31T14:12:18;7.20;;;6.60;;
82417;SDS011;72059;53.734;10.260;2023-10-31T14:14:45;7.78;;;7.17;;
82417;SDS011;72059;53.734;10.260;2023-10-31T14:17:16;7.65;;;6.95;;
82417;SDS011;72059;53.734;10.260;2023-10-31T14:19:43;6.97;;;6.37;;
82417;SDS011;72059;53.734;10.260;2023-10-31T14:22:16;9.00;;;8.10;;
82417;SDS011;72059;53.734;10.260;2023-10-31T14:24:40;8.20;;;7.40;;
82417;SDS011;72059;53.734;10.260;2023-10-31T14:27:07;8.35;;;7.62;;
82417;SDS011;72059;53.734;10.260;2023-10-31T14:29:35;12.28;;;11.08;;
82417;SDS011;72059;53.734;10.260;2023-10-31T14:32:08;11.53;;;10.32;;
82417;SDS011;72059;53.734;10.260;2023-10-31T14:34:36;10.75;;;9.65;;
82417;SDS011;72059;53.734;10.260;2023-10-31T14:37:04;10.58;;;9.58;;
82417;SDS011;72059;53.734;10.260;2023-10-31T14:39:31;9.65;;;8.48;;
82417;SDS011;72059;53.734;10.260;2023-10-31T14:41:58;7.95;;;7.25;;
82417;SDS011;72059;53.734;10.260;2023-10-31T14:44:26;7.75;;;7.00;;